createdAt,value
2023-04-13T00:01:19.732Z,74.00
2023-04-13T00:03:47.491Z,73.60
2023-04-13T00:06:15.376Z,73.50
2023-04-13T00:08:46.933Z,73.60
2023-04-13T00:11:14.441Z,74.10
2023-04-13T00:13:43.198Z,73.10
2023-04-13T00:16:11.266Z,74.40
2023-04-13T00:18:38.910Z,74.50
2023-04-13T00:21:07.945Z,74.40
2023-04-13T00:23:36.362Z,73.60
2023-04-13T00:26:04.562Z,74.30
2023-04-13T00:28:32.053Z,73.80
2023-04-13T00:30:59.729Z,74.10
2023-04-13T00:33:27.422Z,73.40
2023-04-13T00:35:55.752Z,74.10
2023-04-13T00:38:25.118Z,73.60
2023-04-13T00:40:53.470Z,73.90
2023-04-13T00:43:22.225Z,74.70
2023-04-13T00:45:50.141Z,73.40
2023-04-13T00:48:17.936Z,74.80
2023-04-13T00:50:45.656Z,73.20
2023-04-13T00:53:13.946Z,73.20
2023-04-13T00:55:43.855Z,73.30
2023-04-13T00:58:13.714Z,73.20
2023-04-13T01:00:43.490Z,74.40
2023-04-13T01:03:13.018Z,73.40
2023-04-13T01:05:50.816Z,74.60
2023-04-13T01:08:25.981Z,74.60
2023-04-13T01:10:59.690Z,73.90
2023-04-13T01:13:31.690Z,73.90
2023-04-13T01:16:04.324Z,74.20
2023-04-13T01:18:34.905Z,73.30
2023-04-13T01:21:03.064Z,72.60
2023-04-13T01:23:46.875Z,72.30
2023-04-13T01:26:14.629Z,72.20
2023-04-13T01:28:42.624Z,72.10
2023-04-13T01:31:12.224Z,72.20
2023-04-13T01:33:41.537Z,72.00
2023-04-13T01:36:10.749Z,71.80
2023-04-13T01:38:38.438Z,71.90
2023-04-13T01:41:06.461Z,71.50
2023-04-13T01:43:35.264Z,71.10
2023-04-13T01:46:10.405Z,71.10
2023-04-13T01:48:44.061Z,70.90
2023-04-13T01:51:20.454Z,70.60
2023-04-13T01:53:53.964Z,70.40
2023-04-13T01:56:24.163Z,70.40
2023-04-13T01:58:54.620Z,70.20
2023-04-13T02:01:22.277Z,70.00
2023-04-13T02:03:50.384Z,69.90
2023-04-13T02:06:18.797Z,69.70
2023-04-13T02:08:46.390Z,69.60
2023-04-13T02:11:14.026Z,69.60
2023-04-13T02:13:42.155Z,69.60
2023-04-13T02:16:10.342Z,69.20
2023-04-13T02:18:38.892Z,69.00
2023-04-13T02:21:12.245Z,68.90
2023-04-13T02:23:42.888Z,68.00
2023-04-13T02:26:12.091Z,68.50
2023-04-13T02:28:40.495Z,68.10
2023-04-13T02:31:08.198Z,68.20
2023-04-13T02:33:36.575Z,67.80
2023-04-13T02:36:04.435Z,67.50
2023-04-13T02:38:32.781Z,66.60
2023-04-13T02:41:00.816Z,66.90
2023-04-13T02:43:29.960Z,67.00
2023-04-13T02:45:58.332Z,66.60
2023-04-13T02:48:27.642Z,66.40
2023-04-13T02:50:56.050Z,66.00
2023-04-13T02:53:24.834Z,66.30
2023-04-13T02:55:53.853Z,65.80
2023-04-13T02:58:23.277Z,65.80
2023-04-13T03:00:50.951Z,65.10
2023-04-13T03:03:19.372Z,64.40
2023-04-13T03:05:47.754Z,63.80
2023-04-13T03:08:15.434Z,64.40
2023-04-13T03:10:43.725Z,64.70
2023-04-13T03:13:11.762Z,64.30
2023-04-13T03:15:41.100Z,64.50
2023-04-13T03:18:08.676Z,64.90
2023-04-13T03:20:36.577Z,64.50
2023-04-13T03:23:04.845Z,63.80
2023-04-13T03:25:33.873Z,63.80
2023-04-13T03:28:01.909Z,64.10
2023-04-13T03:30:29.676Z,64.30
2023-04-13T03:32:57.318Z,63.50
2023-04-13T03:35:25.823Z,62.10
2023-04-13T03:37:53.588Z,61.00
2023-04-13T03:40:21.349Z,61.20
2023-04-13T03:42:48.970Z,61.20
2023-04-13T03:45:17.598Z,61.90
2023-04-13T03:47:48.839Z,63.20
2023-04-13T03:50:16.687Z,62.60
2023-04-13T03:52:45.095Z,61.60
2023-04-13T03:58:04.140Z,62.10
2023-04-13T04:00:32.743Z,61.40
2023-04-13T04:03:00.390Z,62.20
2023-04-13T04:05:28.928Z,60.80
2023-04-13T04:07:57.323Z,62.40
2023-04-13T04:10:25.738Z,62.40
2023-04-13T04:12:54.116Z,61.00
2023-04-13T04:15:22.987Z,60.60
2023-04-13T04:17:51.133Z,60.30
2023-04-13T04:20:20.118Z,59.50
2023-04-13T04:22:47.864Z,60.00
2023-04-13T04:25:18.278Z,60.40
2023-04-13T04:27:47.999Z,60.60
2023-04-13T04:30:15.699Z,59.30
2023-04-13T04:32:43.957Z,59.30
2023-04-13T04:35:12.361Z,59.00
2023-04-13T04:37:40.040Z,59.20
2023-04-13T04:40:18.437Z,60.60
2023-04-13T04:42:46.260Z,58.30
2023-04-13T04:45:16.992Z,58.50
2023-04-13T04:47:45.006Z,58.90
2023-04-13T04:50:14.125Z,59.60
2023-04-13T04:52:41.962Z,59.20
2023-04-13T04:55:10.654Z,58.80
2023-04-13T04:57:38.919Z,59.90
2023-04-13T05:00:16.140Z,59.10
2023-04-13T05:02:45.574Z,60.10
2023-04-13T05:05:14.112Z,59.80
2023-04-13T05:07:42.523Z,58.90
2023-04-13T05:10:11.352Z,58.70
2023-04-13T05:12:39.208Z,58.80
2023-04-13T05:15:31.718Z,58.00
2023-04-13T05:17:59.536Z,58.70
2023-04-13T05:20:29.055Z,59.40
2023-04-13T05:23:00.663Z,59.20
2023-04-13T05:25:28.339Z,59.10
2023-04-13T05:27:57.541Z,58.70
2023-04-13T05:30:25.867Z,57.50
2023-04-13T05:32:54.349Z,56.80
2023-04-13T05:35:23.951Z,56.20
2023-04-13T05:37:52.228Z,58.20
2023-04-13T05:40:20.650Z,58.20
2023-04-13T05:42:49.108Z,57.00
2023-04-13T05:45:18.030Z,56.70
2023-04-13T05:47:46.220Z,54.70
2023-04-13T05:51:28.615Z,57.00
2023-04-13T05:53:08.990Z,57.00
2023-04-13T05:55:52.762Z,56.10
2023-04-13T05:58:29.587Z,57.20
2023-04-13T06:01:37.800Z,56.60
2023-04-13T06:04:06.246Z,54.90
2023-04-13T06:06:34.203Z,55.20
2023-04-13T06:09:02.430Z,56.10
2023-04-13T06:11:30.070Z,56.20
2023-04-13T06:13:59.968Z,56.10
2023-04-13T06:16:27.844Z,54.90
2023-04-13T06:18:55.546Z,55.80
2023-04-13T06:21:23.260Z,54.30
2023-04-13T06:23:52.550Z,55.30
2023-04-13T06:26:21.063Z,53.30
2023-04-13T06:28:50.354Z,55.00
2023-04-13T06:31:17.956Z,54.60
2023-04-13T06:33:45.616Z,54.20
2023-04-13T06:36:13.356Z,53.80
2023-04-13T06:38:41.829Z,53.70
2023-04-13T06:41:09.415Z,54.20
2023-04-13T06:43:40.333Z,53.90
2023-04-13T06:46:08.957Z,53.60
2023-04-13T06:48:36.655Z,52.70
2023-04-13T06:51:04.349Z,51.70
2023-04-13T06:53:32.657Z,53.30
2023-04-13T06:56:01.008Z,53.40
2023-04-13T06:58:28.592Z,53.20
2023-04-13T07:00:57.177Z,53.50
2023-04-13T07:03:24.801Z,51.70
2023-04-13T07:05:53.357Z,51.30
2023-04-13T07:08:21.813Z,53.10
2023-04-13T07:10:53.891Z,53.30
2023-04-13T07:13:22.288Z,53.10
2023-04-13T07:15:50.812Z,52.50
2023-04-13T07:18:18.400Z,52.80
2023-04-13T07:20:48.432Z,51.20
2023-04-13T07:23:16.840Z,53.00
2023-04-13T07:25:45.098Z,51.10
2023-04-13T07:28:12.702Z,51.70
2023-04-13T07:30:46.671Z,50.30
2023-04-13T07:33:15.211Z,49.10
2023-04-13T07:35:43.631Z,51.10
2023-04-13T07:38:11.706Z,52.10
2023-04-13T07:40:39.262Z,52.70
2023-04-13T07:43:06.976Z,51.50
2023-04-13T07:45:34.571Z,52.30
2023-04-13T07:48:02.243Z,52.00
2023-04-13T07:50:30.657Z,52.00
2023-04-13T07:52:58.480Z,52.00
2023-04-13T07:55:26.093Z,51.90
2023-04-13T07:57:53.733Z,51.90
2023-04-13T08:00:23.177Z,50.60
2023-04-13T08:02:50.907Z,52.00
2023-04-13T08:05:18.789Z,51.70
2023-04-13T08:07:49.263Z,51.80
2023-04-13T08:10:17.031Z,51.50
2023-04-13T08:12:44.753Z,50.40
2023-04-13T08:15:14.404Z,51.10
2023-04-13T08:17:43.370Z,51.70
2023-04-13T08:20:11.245Z,51.60
2023-04-13T08:22:39.047Z,50.10
2023-04-13T08:25:06.838Z,51.20
2023-04-13T08:27:34.368Z,51.40
2023-04-13T08:30:03.200Z,51.50
2023-04-13T08:32:31.667Z,50.40
2023-04-13T08:34:59.336Z,51.50
2023-04-13T08:37:29.116Z,52.00
2023-04-13T08:40:00.782Z,51.00
2023-04-13T08:42:29.467Z,50.70
2023-04-13T08:45:00.342Z,49.50
2023-04-13T08:47:29.064Z,50.50
2023-04-13T08:50:00.022Z,50.10
2023-04-13T08:52:28.706Z,51.20
2023-04-13T08:54:58.744Z,49.80
2023-04-13T08:57:26.501Z,51.20
2023-04-13T08:59:55.111Z,51.10
2023-04-13T09:02:29.226Z,50.40
2023-04-13T09:05:00.803Z,50.80
2023-04-13T09:07:35.386Z,51.20
2023-04-13T09:10:08.904Z,51.30
2023-04-13T09:12:40.665Z,51.10
2023-04-13T09:15:09.404Z,51.00
2023-04-13T09:17:37.027Z,51.40
2023-04-13T09:20:14.878Z,51.30
2023-04-13T09:22:43.203Z,51.30
2023-04-13T09:25:27.587Z,51.00
2023-04-13T09:27:56.361Z,50.90
2023-04-13T09:30:24.854Z,50.80
2023-04-13T09:33:05.444Z,50.90
2023-04-13T09:35:33.853Z,50.90
2023-04-13T09:38:02.888Z,51.60
2023-04-13T09:40:31.009Z,51.70
2023-04-13T09:43:00.909Z,51.30
2023-04-13T09:45:39.156Z,51.40
2023-04-13T09:48:16.805Z,51.90
2023-04-13T09:50:45.733Z,52.30
2023-04-13T09:53:13.359Z,52.50
2023-04-13T09:55:41.410Z,52.50
2023-04-13T09:58:12.939Z,52.30
2023-04-13T10:00:42.412Z,52.30
2023-04-13T10:03:13.498Z,53.00
2023-04-13T10:05:58.054Z,53.00
2023-04-13T10:08:37.249Z,52.90
2023-04-13T10:11:08.929Z,53.10
2023-04-13T10:13:49.291Z,53.00
2023-04-13T10:16:36.969Z,52.60
2023-04-13T10:19:08.594Z,53.00
2023-04-13T10:24:13.453Z,52.80
2023-04-13T10:26:42.047Z,53.30
2023-04-13T10:29:11.739Z,53.30
2023-04-13T10:31:40.096Z,53.30
2023-04-13T10:34:10.993Z,53.20
2023-04-13T10:36:43.457Z,53.30
2023-04-13T10:39:11.531Z,53.70
2023-04-13T10:41:39.422Z,53.70
2023-04-13T10:44:07.947Z,53.70
2023-04-13T10:46:37.264Z,53.50
2023-04-13T10:49:05.207Z,53.70
2023-04-13T10:51:42.357Z,53.80
2023-04-13T10:54:10.470Z,53.70
2023-04-13T10:56:38.145Z,54.00
2023-04-13T10:59:06.667Z,54.00
2023-04-13T11:01:36.013Z,54.10
2023-04-13T11:04:07.720Z,54.30
2023-04-13T11:06:38.187Z,55.00
2023-04-13T11:09:07.892Z,54.50
2023-04-13T11:11:37.483Z,54.60
2023-04-13T11:14:05.130Z,54.60
2023-04-13T11:16:32.751Z,54.70
2023-04-13T11:19:04.260Z,54.70
2023-04-13T11:21:36.535Z,54.70
2023-04-13T11:24:04.250Z,54.90
2023-04-13T11:26:34.045Z,54.90
2023-04-13T11:29:03.584Z,55.00
2023-04-13T11:31:41.145Z,55.20
2023-04-13T11:34:13.248Z,55.30
2023-04-13T11:36:41.269Z,55.20
2023-04-13T11:39:10.736Z,55.30
2023-04-13T11:41:41.912Z,55.20
2023-04-13T11:44:12.641Z,55.30
2023-04-13T11:46:40.258Z,55.40
2023-04-13T11:49:08.758Z,55.50
2023-04-13T11:51:37.401Z,55.50
2023-04-13T11:54:05.364Z,55.70
2023-04-13T11:56:33.074Z,55.70
2023-04-13T11:59:00.930Z,55.70
2023-04-13T12:01:33.909Z,55.70
2023-04-13T12:04:13.899Z,55.80
2023-04-13T12:06:44.687Z,55.90
2023-04-13T12:09:16.728Z,55.90
2023-04-13T12:11:50.244Z,56.00
2023-04-13T12:19:28.289Z,56.00
2023-04-13T12:21:58.840Z,56.30
2023-04-13T12:24:38.306Z,56.40
2023-04-13T12:27:16.960Z,56.60
2023-04-13T12:29:45.157Z,56.80
2023-04-13T12:32:15.498Z,56.80
2023-04-13T12:34:44.217Z,56.90
2023-04-13T12:37:12.458Z,57.30
2023-04-13T12:39:40.019Z,57.10
2023-04-13T12:42:08.348Z,57.40
2023-04-13T12:44:37.217Z,57.90
2023-04-13T12:47:06.403Z,58.50
2023-04-13T12:49:34.836Z,57.70
2023-04-13T12:52:02.492Z,58.60
2023-04-13T12:54:31.903Z,57.80
2023-04-13T12:57:01.960Z,58.10
2023-04-13T12:59:29.573Z,58.40
2023-04-13T13:01:57.207Z,58.80
2023-04-13T13:04:24.917Z,58.50
2023-04-13T13:06:53.553Z,58.60
2023-04-13T13:09:21.876Z,59.20
2023-04-13T13:11:50.305Z,59.90
2023-04-13T13:14:17.958Z,58.90
2023-04-13T13:16:46.116Z,59.20
2023-04-13T13:19:13.743Z,59.10
2023-04-13T13:21:41.358Z,59.60
2023-04-13T13:24:09.933Z,59.30
2023-04-13T13:27:00.179Z,59.30
2023-04-13T13:29:28.417Z,59.60
2023-04-13T13:31:56.142Z,60.30
2023-04-13T13:34:24.547Z,59.70
2023-04-13T13:36:52.906Z,59.70
2023-04-13T13:39:23.136Z,59.90
2023-04-13T13:41:52.002Z,59.90
2023-04-13T13:44:20.435Z,60.00
2023-04-13T13:46:48.035Z,60.20
2023-04-13T13:49:16.029Z,60.30
2023-04-13T13:51:43.545Z,60.40
2023-04-13T13:54:11.289Z,60.80
2023-04-13T13:56:39.661Z,61.00
2023-04-13T13:59:07.855Z,61.20
2023-04-13T14:01:35.969Z,60.90
2023-04-13T14:04:05.450Z,61.60
2023-04-13T14:06:34.442Z,60.80
2023-04-13T14:09:02.533Z,61.00
2023-04-13T14:11:30.440Z,61.00
2023-04-13T14:14:03.340Z,61.10
2023-04-13T14:16:39.627Z,61.70
2023-04-13T14:19:07.539Z,61.50
2023-04-13T14:21:35.353Z,62.50
2023-04-13T14:24:03.143Z,61.50
2023-04-13T14:26:30.798Z,61.60
2023-04-13T14:28:59.403Z,61.60
2023-04-13T14:31:27.128Z,62.70
2023-04-13T14:33:54.741Z,64.30
2023-04-13T14:36:23.129Z,62.30
2023-04-13T14:38:52.824Z,62.30
2023-04-13T14:41:22.089Z,62.50
2023-04-13T14:43:49.785Z,62.20
2023-04-13T14:46:17.595Z,62.50
2023-04-13T14:48:45.129Z,63.20
2023-04-13T14:51:19.116Z,62.90
2023-04-13T14:53:48.037Z,63.60
2023-04-13T14:56:16.032Z,63.00
2023-04-13T14:58:44.458Z,63.50
2023-04-13T15:01:19.660Z,63.10
2023-04-13T15:03:48.316Z,64.00
2023-04-13T15:06:16.103Z,63.00
2023-04-13T15:08:44.391Z,63.10
2023-04-13T15:11:12.780Z,63.90
2023-04-13T15:13:40.403Z,63.90
2023-04-13T15:16:08.827Z,65.00
2023-04-13T15:18:37.698Z,64.10
2023-04-13T15:21:06.273Z,64.60
2023-04-13T15:23:34.200Z,65.20
2023-04-13T15:26:02.524Z,64.20
2023-04-13T15:28:31.469Z,64.50
2023-04-13T15:30:59.942Z,64.00
2023-04-13T15:33:27.492Z,64.00
2023-04-13T15:35:55.674Z,63.80
2023-04-13T15:38:23.316Z,64.10
2023-04-13T15:40:50.874Z,64.20
2023-04-13T15:43:19.303Z,64.10
2023-04-13T15:45:50.245Z,64.60
2023-04-13T15:48:19.483Z,64.20
2023-04-13T15:50:47.049Z,64.60
2023-04-13T15:53:15.912Z,65.60
2023-04-13T15:55:43.580Z,64.60
2023-04-13T15:58:13.739Z,67.80
2023-04-13T16:00:41.737Z,65.90
2023-04-13T16:03:09.590Z,65.40
2023-04-13T16:05:38.070Z,65.60
2023-04-13T16:08:06.669Z,66.10
2023-04-13T16:10:35.271Z,66.30
2023-04-13T16:13:03.908Z,66.50
2023-04-13T16:15:32.326Z,67.00
2023-04-13T16:18:00.727Z,66.70
2023-04-13T16:20:28.713Z,66.90
2023-04-13T16:23:00.397Z,66.90
2023-04-13T16:25:28.078Z,65.80
2023-04-13T16:27:56.301Z,65.80
2023-04-13T16:30:24.050Z,66.20
2023-04-13T16:32:52.813Z,66.40
2023-04-13T16:35:21.285Z,66.80
2023-04-13T16:37:48.843Z,67.20
2023-04-13T16:40:17.832Z,67.40
2023-04-13T16:42:46.323Z,67.90
2023-04-13T16:45:15.452Z,66.90
2023-04-13T16:47:43.256Z,67.10
2023-04-13T16:50:11.657Z,68.50
2023-04-13T16:52:40.156Z,70.00
2023-04-13T16:55:08.875Z,67.60
2023-04-13T16:57:36.486Z,67.10
2023-04-13T17:00:10.217Z,69.50
2023-04-13T17:02:39.907Z,69.10
2023-04-13T17:05:09.066Z,68.70
2023-04-13T17:07:40.772Z,67.00
2023-04-13T17:10:09.200Z,67.50
2023-04-13T17:12:36.970Z,68.60
2023-04-13T17:15:07.798Z,68.40
2023-04-13T17:17:35.570Z,68.70
2023-04-13T17:20:03.162Z,68.90
2023-04-13T17:22:31.559Z,68.70
2023-04-13T17:24:59.184Z,67.70
2023-04-13T17:27:27.751Z,67.40
2023-04-13T17:29:56.131Z,69.20
2023-04-13T17:32:23.956Z,70.20
2023-04-13T17:34:51.650Z,72.60
2023-04-13T17:37:19.394Z,70.70
2023-04-13T17:39:48.578Z,71.50
2023-04-13T17:42:16.352Z,73.00
2023-04-13T17:44:44.276Z,72.20
2023-04-13T17:47:11.903Z,70.60
2023-04-13T17:49:40.323Z,71.50
2023-04-13T17:52:07.881Z,70.70
2023-04-13T17:54:37.269Z,71.00
2023-04-13T17:57:07.564Z,70.90
2023-04-13T17:59:35.153Z,71.20
2023-04-13T18:02:02.989Z,71.00
2023-04-13T18:04:32.979Z,72.80
2023-04-13T18:07:01.093Z,71.40
2023-04-13T18:09:28.697Z,72.40
2023-04-13T18:11:56.310Z,71.80
2023-04-13T18:14:24.828Z,69.80
2023-04-13T18:16:53.254Z,71.80
2023-04-13T18:19:21.212Z,71.70
2023-04-13T18:21:49.648Z,71.30
2023-04-13T18:24:17.293Z,70.50
2023-04-13T18:26:44.885Z,71.60
2023-04-13T18:29:14.764Z,70.30
2023-04-13T18:31:42.382Z,71.20
2023-04-13T18:34:12.961Z,71.30
2023-04-13T18:36:41.977Z,72.50
2023-04-13T18:39:09.569Z,73.00
2023-04-13T18:41:38.473Z,71.40
2023-04-13T18:44:08.773Z,71.70
2023-04-13T18:46:36.662Z,71.40
2023-04-13T18:49:05.058Z,72.30
2023-04-13T18:51:33.613Z,71.70
2023-04-13T18:54:02.877Z,73.30
2023-04-13T18:56:30.612Z,72.70
2023-04-13T18:58:58.224Z,71.60
2023-04-13T19:01:26.749Z,73.30
2023-04-13T19:03:55.493Z,72.70
2023-04-13T19:06:24.775Z,73.90
2023-04-13T19:08:52.334Z,73.50
2023-04-13T19:11:20.340Z,73.70
2023-04-13T19:13:48.360Z,73.80
2023-04-13T19:16:16.811Z,74.30
2023-04-13T19:18:45.313Z,73.60
2023-04-13T19:21:13.165Z,74.20
2023-04-13T19:23:40.921Z,72.00
2023-04-13T19:26:08.919Z,72.10
2023-04-13T19:28:37.508Z,70.90
2023-04-13T19:31:05.069Z,72.80
2023-04-13T19:33:33.786Z,73.70
2023-04-13T19:36:01.946Z,75.00
2023-04-13T19:38:29.512Z,75.30
2023-04-13T19:40:57.994Z,75.00
2023-04-13T19:43:28.270Z,74.80
2023-04-13T19:45:56.758Z,73.90
2023-04-13T19:48:24.677Z,74.40
2023-04-13T19:50:53.030Z,73.90
2023-04-13T19:53:20.745Z,76.40
2023-04-13T19:55:51.171Z,75.60
2023-04-13T19:58:18.835Z,74.70
2023-04-13T20:00:48.398Z,72.80
2023-04-13T20:03:19.054Z,72.40
2023-04-13T20:05:48.377Z,75.50
2023-04-13T20:08:17.410Z,73.20
2023-04-13T20:10:45.761Z,74.10
2023-04-13T20:13:13.683Z,73.70
2023-04-13T20:15:41.281Z,76.00
2023-04-13T20:18:10.059Z,75.30
2023-04-13T20:20:38.235Z,76.70
2023-04-13T20:23:05.960Z,77.00
2023-04-13T20:25:33.511Z,76.90
2023-04-13T20:28:01.107Z,74.30
2023-04-13T20:30:29.507Z,75.90
2023-04-13T20:32:57.122Z,74.60
2023-04-13T20:35:25.629Z,77.10
2023-04-13T20:37:54.046Z,77.50
2023-04-13T20:40:27.142Z,76.00
2023-04-13T20:42:55.693Z,76.00
2023-04-13T20:45:23.506Z,76.00
2023-04-13T20:47:53.421Z,76.50
2023-04-13T20:50:25.678Z,74.40
2023-04-13T20:52:56.973Z,74.50
2023-04-13T20:55:25.542Z,77.00
2023-04-13T20:57:53.199Z,74.20
2023-04-13T21:00:24.722Z,73.20
2023-04-13T21:02:53.999Z,72.90
2023-04-13T21:05:23.237Z,76.10
2023-04-13T21:07:52.014Z,74.10
2023-04-13T21:10:19.693Z,75.30
2023-04-13T21:12:48.093Z,77.70
2023-04-13T21:15:16.519Z,77.40
2023-04-13T21:17:45.361Z,74.60
2023-04-13T21:20:13.188Z,75.90
2023-04-13T21:22:40.878Z,76.70
2023-04-13T21:25:08.510Z,75.80
2023-04-13T21:27:36.182Z,74.90
2023-04-13T21:30:03.876Z,76.00
2023-04-13T21:32:32.430Z,74.50
2023-04-13T21:35:00.661Z,75.10
2023-04-13T21:37:29.262Z,76.30
2023-04-13T21:39:58.296Z,74.70
2023-04-13T21:42:26.768Z,73.60
2023-04-13T21:44:56.386Z,76.70
2023-04-13T21:47:24.099Z,75.60
2023-04-13T21:49:51.842Z,76.90
2023-04-13T21:52:19.399Z,76.20
2023-04-13T21:54:49.733Z,77.90
2023-04-13T21:57:19.093Z,78.70
2023-04-13T21:59:47.488Z,78.30
2023-04-13T22:02:15.205Z,78.30
2023-04-13T22:04:43.646Z,78.00
2023-04-13T22:07:12.099Z,76.70
2023-04-13T22:09:40.509Z,76.30
2023-04-13T22:12:11.303Z,75.90
2023-04-13T22:14:38.850Z,76.60
2023-04-13T22:17:06.452Z,78.10
2023-04-13T22:19:34.864Z,76.70
2023-04-13T22:22:02.487Z,77.70
2023-04-13T22:24:30.890Z,78.50
2023-04-13T22:26:59.405Z,78.90
2023-04-13T22:29:26.965Z,78.10
2023-04-13T22:31:55.708Z,78.10
2023-04-13T22:34:23.328Z,78.50
2023-04-13T22:36:52.540Z,78.80
2023-04-13T22:39:20.213Z,79.40
2023-04-13T22:41:47.863Z,78.50
2023-04-13T22:44:15.932Z,79.20
2023-04-13T22:46:44.452Z,79.10
2023-04-13T22:49:12.888Z,78.10
2023-04-13T22:51:41.358Z,78.10
2023-04-13T22:54:08.949Z,78.20
2023-04-13T22:56:36.493Z,79.30
2023-04-13T22:59:04.137Z,78.70
2023-04-13T23:01:31.754Z,79.30
2023-04-13T23:03:59.600Z,79.20
2023-04-13T23:06:28.093Z,79.00
2023-04-13T23:08:57.061Z,79.90
2023-04-13T23:11:25.556Z,79.00
2023-04-13T23:13:56.648Z,77.90
2023-04-13T23:16:24.333Z,79.00
2023-04-13T23:18:52.720Z,79.50
2023-04-13T23:21:21.022Z,79.20
2023-04-13T23:23:48.698Z,79.60
2023-04-13T23:26:16.580Z,80.20
2023-04-13T23:28:45.047Z,79.70
2023-04-13T23:31:12.650Z,79.80
2023-04-13T23:33:40.298Z,79.80
2023-04-13T23:36:08.510Z,79.80
2023-04-13T23:38:37.322Z,79.60
2023-04-13T23:41:05.766Z,79.80
2023-04-13T23:43:34.308Z,80.40
2023-04-13T23:46:02.813Z,79.60
2023-04-13T23:48:30.864Z,79.50
2023-04-13T23:50:58.544Z,79.20
2023-04-13T23:56:08.625Z,79.10
2023-04-13T23:58:37.077Z,78.60
